createdAt,value
2023-04-01T00:00:31.223Z,12.91
2023-04-01T00:01:33.392Z,12.91
2023-04-01T00:02:36.714Z,12.93
2023-04-01T00:03:39.358Z,12.94
2023-04-01T00:04:41.776Z,12.95
2023-04-01T00:05:43.923Z,12.95
2023-04-01T00:06:47.056Z,12.96
2023-04-01T00:07:49.196Z,12.96
2023-04-01T00:08:51.210Z,12.97
2023-04-01T00:10:03.606Z,12.98
2023-04-01T00:11:05.730Z,12.97
2023-04-01T00:12:10.543Z,12.98
2023-04-01T00:13:15.016Z,12.98
2023-04-01T00:14:18.422Z,12.99
2023-04-01T00:15:22.068Z,13.00
2023-04-01T00:16:25.129Z,13.00
2023-04-01T00:17:28.918Z,13.00
2023-04-01T00:18:30.862Z,12.99
2023-04-01T00:19:36.764Z,13.01
2023-04-01T00:20:48.730Z,13.02
2023-04-01T00:21:50.826Z,13.00
2023-04-01T00:22:55.437Z,13.01
2023-04-01T00:23:59.511Z,13.01
2023-04-01T00:25:01.934Z,13.02
2023-04-01T00:26:07.636Z,13.02
2023-04-01T00:27:10.930Z,13.02
2023-04-01T00:28:19.298Z,13.01
2023-04-01T00:29:25.037Z,13.03
2023-04-01T00:30:29.416Z,13.04
2023-04-01T00:31:35.226Z,13.04
2023-04-01T00:32:41.932Z,13.04
2023-04-01T00:33:51.503Z,13.04
2023-04-01T00:34:54.095Z,13.04
2023-04-01T00:35:57.982Z,13.04
2023-04-01T00:37:00.633Z,13.05
2023-04-01T00:38:04.311Z,13.06
2023-04-01T00:39:08.361Z,13.07
2023-04-01T00:40:35.302Z,13.05
2023-04-01T00:41:41.186Z,13.06
2023-04-01T00:42:47.450Z,13.07
2023-04-01T00:43:51.382Z,13.06
2023-04-01T00:44:56.249Z,13.06
2023-04-01T00:45:58.376Z,13.05
2023-04-01T00:47:00.896Z,13.05
2023-04-01T00:50:50.593Z,13.06
2023-04-01T00:52:01.442Z,13.05
2023-04-01T00:54:07.746Z,13.07
2023-04-01T00:55:11.714Z,13.07
2023-04-01T00:56:20.959Z,13.08
2023-04-01T00:58:54.299Z,13.19
2023-04-01T00:59:58.183Z,13.08
2023-04-01T01:01:01.745Z,13.09
2023-04-01T01:02:08.106Z,13.09
2023-04-01T01:03:10.296Z,13.11
2023-04-01T01:04:24.433Z,13.10
2023-04-01T01:05:50.040Z,13.11
2023-04-01T01:07:05.855Z,13.12
2023-04-01T01:12:13.287Z,13.13
2023-04-01T01:14:47.154Z,13.13
2023-04-01T01:16:17.835Z,13.13
2023-04-01T01:19:08.640Z,13.25
2023-04-01T01:22:09.199Z,13.26
2023-04-01T01:23:43.999Z,13.14
2023-04-01T01:25:14.348Z,13.14
2023-04-01T01:29:30.606Z,13.24
2023-04-01T01:30:42.621Z,13.14
2023-04-01T01:32:06.949Z,13.14
2023-04-01T01:33:13.027Z,13.14
2023-04-01T01:34:21.900Z,13.15
2023-04-01T01:36:38.940Z,13.14
2023-04-01T01:37:42.870Z,13.13
2023-04-01T01:38:45.463Z,13.14
2023-04-01T01:39:51.273Z,13.14
2023-04-01T01:40:53.592Z,13.14
2023-04-01T01:43:15.456Z,13.25
2023-04-01T01:44:18.519Z,13.14
2023-04-01T01:45:22.819Z,13.16
2023-04-01T01:46:26.091Z,13.14
2023-04-01T01:47:28.897Z,13.14
2023-04-01T01:48:31.570Z,13.14
2023-04-01T01:49:33.940Z,13.14
2023-04-01T01:50:36.993Z,13.16
2023-04-01T01:51:39.573Z,13.17
2023-04-01T01:52:42.968Z,13.17
2023-04-01T01:53:45.334Z,13.18
2023-04-01T01:54:52.878Z,13.16
2023-04-01T01:55:56.190Z,13.16
2023-04-01T01:57:07.485Z,13.17
2023-04-01T01:58:20.471Z,13.18
2023-04-01T01:59:22.972Z,13.18
2023-04-01T02:00:25.550Z,13.18
2023-04-01T02:01:29.823Z,13.19
2023-04-01T02:02:33.783Z,13.19
2023-04-01T02:03:37.351Z,13.19
2023-04-01T02:04:40.733Z,13.20
2023-04-01T02:05:42.875Z,13.19
2023-04-01T02:06:56.121Z,13.20
2023-04-01T02:09:11.718Z,13.32
2023-04-01T02:10:15.098Z,13.22
2023-04-01T02:11:18.652Z,13.22
2023-04-01T02:12:22.260Z,13.23
2023-04-01T02:13:30.475Z,13.24
2023-04-01T02:16:00.443Z,13.33
2023-04-01T02:17:05.836Z,13.24
2023-04-01T02:18:08.231Z,13.24
2023-04-01T02:19:11.582Z,13.24
2023-04-01T02:20:17.150Z,13.24
2023-04-01T02:21:19.854Z,13.24
2023-04-01T02:22:27.128Z,13.24
2023-04-01T02:23:29.201Z,13.24
2023-04-01T02:24:32.195Z,13.25
2023-04-01T02:25:36.083Z,13.25
2023-04-01T02:26:38.194Z,13.25
2023-04-01T02:27:41.610Z,13.25
2023-04-01T02:28:43.713Z,13.25
2023-04-01T02:29:45.888Z,13.24
2023-04-01T02:30:48.130Z,13.24
2023-04-01T02:31:50.213Z,13.24
2023-04-01T02:32:53.383Z,13.25
2023-04-01T02:33:55.453Z,13.23
2023-04-01T02:34:57.529Z,13.24
2023-04-01T02:35:59.935Z,13.25
2023-04-01T02:37:02.364Z,13.24
2023-04-01T02:38:04.309Z,13.25
2023-04-01T02:39:06.665Z,13.24
2023-04-01T02:40:13.175Z,13.25
2023-04-01T02:41:15.441Z,13.24
2023-04-01T02:42:17.369Z,13.24
2023-04-01T02:43:19.418Z,13.22
2023-04-01T02:44:21.426Z,13.24
2023-04-01T02:45:23.312Z,13.24
2023-04-01T02:46:25.859Z,13.25
2023-04-01T02:47:27.978Z,13.24
2023-04-01T02:48:30.177Z,13.24
2023-04-01T02:49:32.138Z,13.24
2023-04-01T02:50:34.328Z,13.25
2023-04-01T02:51:36.678Z,13.25
2023-04-01T02:52:39.326Z,13.25
2023-04-01T02:53:41.689Z,13.25
2023-04-01T02:54:43.785Z,13.25
2023-04-01T02:55:45.745Z,13.25
2023-04-01T02:56:48.216Z,13.25
2023-04-01T02:57:50.443Z,13.25
2023-04-01T02:58:53.817Z,13.26
2023-04-01T02:59:55.824Z,13.25
2023-04-01T03:00:57.900Z,13.26
2023-04-01T03:01:59.923Z,13.25
2023-04-01T03:03:02.058Z,13.25
2023-04-01T03:04:04.885Z,13.26
2023-04-01T03:05:08.654Z,13.25
2023-04-01T03:06:14.034Z,13.26
2023-04-01T03:07:16.388Z,13.26
2023-04-01T03:08:18.762Z,13.25
2023-04-01T03:09:20.821Z,13.26
2023-04-01T03:10:23.753Z,13.28
2023-04-01T03:11:26.363Z,13.27
2023-04-01T03:12:29.461Z,13.27
2023-04-01T03:13:32.950Z,13.28
2023-04-01T03:14:36.254Z,13.28
2023-04-01T03:15:38.372Z,13.28
2023-04-01T03:16:41.187Z,13.28
2023-04-01T03:17:43.577Z,13.27
2023-04-01T03:18:46.494Z,13.27
2023-04-01T03:19:48.585Z,13.27
2023-04-01T03:20:50.735Z,13.26
2023-04-01T03:21:52.705Z,13.24
2023-04-01T03:22:54.637Z,13.25
2023-04-01T03:23:56.551Z,13.25
2023-04-01T03:24:58.992Z,13.24
2023-04-01T03:26:01.068Z,13.24
2023-04-01T03:27:04.161Z,13.25
2023-04-01T03:28:06.850Z,13.24
2023-04-01T03:29:08.894Z,13.23
2023-04-01T03:30:11.853Z,13.22
2023-04-01T03:31:16.515Z,13.22
2023-04-01T03:32:20.541Z,13.21
2023-04-01T03:33:22.590Z,13.20
2023-04-01T03:34:25.464Z,13.19
2023-04-01T03:35:27.755Z,13.19
2023-04-01T03:36:29.968Z,13.19
2023-04-01T03:37:32.317Z,13.18
2023-04-01T03:38:35.998Z,13.18
2023-04-01T03:39:38.523Z,13.17
2023-04-01T03:40:43.605Z,13.17
2023-04-01T03:41:46.501Z,13.18
2023-04-01T03:42:48.622Z,13.17
2023-04-01T03:43:50.755Z,13.17
2023-04-01T03:44:52.750Z,13.16
2023-04-01T03:45:55.313Z,13.16
2023-04-01T03:46:58.079Z,13.16
2023-04-01T03:48:00.233Z,13.16
2023-04-01T03:49:03.609Z,13.17
2023-04-01T03:50:07.702Z,13.17
2023-04-01T03:51:09.823Z,13.16
2023-04-01T03:52:12.205Z,13.16
2023-04-01T03:53:14.359Z,13.16
2023-04-01T03:54:16.497Z,13.13
2023-04-01T03:55:18.959Z,13.13
2023-04-01T03:56:22.469Z,13.13
2023-04-01T03:57:25.977Z,13.12
2023-04-01T03:58:28.358Z,13.13
2023-04-01T03:59:30.840Z,13.12
2023-04-01T04:00:33.778Z,13.13
2023-04-01T04:01:36.186Z,13.13
2023-04-01T04:02:38.650Z,13.14
2023-04-01T04:03:41.605Z,13.14
2023-04-01T04:04:44.237Z,13.13
2023-04-01T04:05:48.045Z,13.13
2023-04-01T04:06:50.658Z,13.13
2023-04-01T04:07:53.458Z,13.13
2023-04-01T04:08:56.600Z,13.13
2023-04-01T04:09:58.680Z,13.13
2023-04-01T04:11:01.633Z,13.12
2023-04-01T04:12:05.614Z,13.14
2023-04-01T04:13:07.730Z,13.14
2023-04-01T04:14:11.922Z,13.13
2023-04-01T04:15:14.020Z,13.14
2023-04-01T04:16:17.065Z,13.13
2023-04-01T04:17:21.620Z,13.14
2023-04-01T04:18:23.569Z,13.14
2023-04-01T04:19:25.595Z,13.13
2023-04-01T04:20:29.079Z,13.13
2023-04-01T04:21:31.503Z,13.12
2023-04-01T04:22:35.182Z,13.12
2023-04-01T04:23:39.138Z,13.12
2023-04-01T04:24:41.600Z,13.11
2023-04-01T04:25:56.222Z,13.10
2023-04-01T04:26:58.510Z,13.10
2023-04-01T04:28:01.025Z,13.09
2023-04-01T04:29:03.101Z,13.11
2023-04-01T04:30:08.199Z,13.12
2023-04-01T04:31:10.637Z,13.12
2023-04-01T04:32:13.229Z,13.13
2023-04-01T04:33:15.644Z,13.14
2023-04-01T04:34:18.253Z,13.15
2023-04-01T04:35:20.995Z,13.15
2023-04-01T04:36:23.318Z,13.16
2023-04-01T04:37:26.235Z,13.18
2023-04-01T04:38:28.895Z,13.18
2023-04-01T04:39:30.943Z,13.19
2023-04-01T04:40:34.379Z,13.19
2023-04-01T04:41:37.781Z,13.20
2023-04-01T04:42:40.275Z,13.20
2023-04-01T04:45:05.582Z,13.31
2023-04-01T04:46:09.682Z,13.20
2023-04-01T04:47:11.999Z,13.21
2023-04-01T04:48:15.668Z,13.21
2023-04-01T04:49:17.682Z,13.21
2023-04-01T04:50:20.038Z,13.22
2023-04-01T04:51:22.209Z,13.22
2023-04-01T04:52:24.778Z,13.24
2023-04-01T04:53:26.934Z,13.25
2023-04-01T04:54:30.110Z,13.29
2023-04-01T04:55:34.711Z,13.30
2023-04-01T04:56:56.204Z,13.33
2023-04-01T04:57:59.720Z,13.36
2023-04-01T04:59:02.111Z,13.39
2023-04-01T05:00:08.118Z,13.41
2023-04-01T05:01:18.434Z,13.44
2023-04-01T05:02:20.806Z,13.48
2023-04-01T05:03:23.572Z,13.52
2023-04-01T05:04:25.933Z,13.57
2023-04-01T05:05:28.487Z,13.59
2023-04-01T05:06:31.538Z,13.62
2023-04-01T05:07:34.314Z,13.64
2023-04-01T05:08:36.431Z,13.65
2023-04-01T05:09:38.480Z,13.68
2023-04-01T05:10:41.281Z,13.68
2023-04-01T05:11:43.665Z,13.68
2023-04-01T05:12:46.267Z,13.70
2023-04-01T05:13:50.628Z,13.71
2023-04-01T05:14:52.689Z,13.74
2023-04-01T05:15:54.938Z,13.76
2023-04-01T05:16:57.220Z,13.78
2023-04-01T05:17:59.428Z,13.78
2023-04-01T05:19:02.807Z,13.78
2023-04-01T05:20:06.908Z,13.79
2023-04-01T05:21:10.613Z,13.78
2023-04-01T05:22:14.779Z,13.78
2023-04-01T05:23:17.078Z,13.76
2023-04-01T05:24:19.995Z,13.76
2023-04-01T05:25:22.303Z,13.77
2023-04-01T05:26:24.557Z,13.76
2023-04-01T05:27:26.516Z,13.77
2023-04-01T05:28:28.938Z,13.76
2023-04-01T05:29:31.200Z,13.76
2023-04-01T05:30:35.306Z,13.75
2023-04-01T05:31:39.625Z,13.73
2023-04-01T05:32:42.412Z,13.71
2023-04-01T05:33:44.531Z,13.69
2023-04-01T05:34:46.591Z,13.71
2023-04-01T05:35:48.688Z,13.77
2023-04-01T05:36:51.010Z,13.81
2023-04-01T05:37:53.078Z,13.83
2023-04-01T05:38:56.697Z,13.84
2023-04-01T05:40:01.094Z,13.84
2023-04-01T05:41:04.900Z,13.82
2023-04-01T05:42:07.898Z,13.79
2023-04-01T05:43:10.096Z,13.78
2023-04-01T05:44:12.582Z,13.77
2023-04-01T05:45:17.276Z,13.76
2023-04-01T05:47:43.006Z,13.82
2023-04-01T05:48:45.487Z,13.70
2023-04-01T05:49:48.126Z,13.68
2023-04-01T05:50:50.999Z,13.66
2023-04-01T05:51:52.963Z,13.65
2023-04-01T05:52:54.932Z,13.63
2023-04-01T05:53:57.881Z,13.62
2023-04-01T05:55:00.428Z,13.62
2023-04-01T05:56:03.999Z,13.62
2023-04-01T05:57:08.115Z,13.62
2023-04-01T05:58:10.577Z,13.61
2023-04-01T05:59:13.767Z,13.61
2023-04-01T06:00:18.352Z,13.61
2023-04-01T06:01:22.233Z,13.61
2023-04-01T06:02:24.425Z,13.61
2023-04-01T06:03:26.750Z,13.61
2023-04-01T06:04:31.397Z,13.61
2023-04-01T06:05:41.876Z,13.59
2023-04-01T06:06:44.112Z,13.59
2023-04-01T06:07:46.458Z,13.57
2023-04-01T06:08:48.817Z,13.57
2023-04-01T06:09:50.842Z,13.57
2023-04-01T06:12:47.917Z,13.65
2023-04-01T06:14:21.332Z,13.53
2023-04-01T06:15:28.153Z,13.53
2023-04-01T06:16:52.809Z,13.53
2023-04-01T06:18:25.243Z,13.53
2023-04-01T06:21:04.966Z,13.63
2023-04-01T06:22:30.207Z,13.51
2023-04-01T06:23:45.270Z,13.51
2023-04-01T06:25:13.738Z,13.52
2023-04-01T06:26:29.559Z,13.51
2023-04-01T06:28:02.020Z,13.52
2023-04-01T06:29:08.322Z,13.53
2023-04-01T06:30:34.240Z,13.52
2023-04-01T06:32:00.415Z,13.53
2023-04-01T06:33:34.191Z,13.52
2023-04-01T06:34:43.541Z,13.52
2023-04-01T06:36:08.478Z,13.51
2023-04-01T06:40:13.372Z,13.53
2023-04-01T06:41:31.064Z,13.54
2023-04-01T06:42:42.698Z,13.56
2023-04-01T06:44:03.032Z,13.56
2023-04-01T06:45:34.117Z,13.56
2023-04-01T06:47:10.981Z,13.56
2023-04-01T06:48:42.056Z,13.55
2023-04-01T06:50:08.677Z,13.53
2023-04-01T06:51:19.334Z,13.52
2023-04-01T06:54:13.146Z,13.60
2023-04-01T06:55:39.902Z,13.48
2023-04-01T06:58:06.600Z,13.61
2023-04-01T06:59:32.317Z,13.48
2023-04-01T07:01:53.644Z,13.61
2023-04-01T07:04:31.265Z,13.62
2023-04-01T07:05:34.969Z,13.51
2023-04-01T07:06:40.998Z,13.52
2023-04-01T07:07:51.551Z,13.54
2023-04-01T07:08:54.917Z,13.56
2023-04-01T07:09:58.458Z,13.56
2023-04-01T07:11:11.848Z,13.58
2023-04-01T07:12:43.050Z,13.60
2023-04-01T07:15:04.260Z,13.75
2023-04-01T07:16:13.552Z,13.66
2023-04-01T07:18:33.381Z,13.79
2023-04-01T07:20:54.502Z,13.84
2023-04-01T07:22:25.222Z,13.75
2023-04-01T07:23:34.581Z,13.76
2023-04-01T07:24:41.264Z,13.76
2023-04-01T07:25:45.096Z,13.78
2023-04-01T07:26:57.441Z,13.79
2023-04-01T07:28:05.269Z,13.79
2023-04-01T07:29:12.802Z,13.78
2023-04-01T07:30:19.415Z,13.80
2023-04-01T07:31:37.392Z,13.79
2023-04-01T07:32:52.563Z,13.79
2023-04-01T07:35:29.450Z,13.91
2023-04-01T07:39:51.869Z,13.92
2023-04-01T07:41:00.226Z,13.82
2023-04-01T07:42:18.408Z,13.85
2023-04-01T07:43:24.606Z,13.85
2023-04-01T07:44:38.067Z,13.88
2023-04-01T07:46:01.965Z,13.89
2023-04-01T07:47:24.603Z,13.89
2023-04-01T07:48:33.328Z,13.91
2023-04-01T07:49:58.256Z,13.91
2023-04-01T07:51:19.377Z,13.91
2023-04-01T07:52:46.856Z,13.91
2023-04-01T07:53:54.891Z,13.93
2023-04-01T07:56:35.760Z,14.03
2023-04-01T07:57:45.145Z,13.92
2023-04-01T08:00:30.411Z,14.03
2023-04-01T08:01:53.039Z,13.94
2023-04-01T08:03:15.102Z,13.94
2023-04-01T08:04:30.302Z,13.95
2023-04-01T08:05:43.372Z,13.97
2023-04-01T08:08:23.833Z,14.11
2023-04-01T08:11:34.785Z,14.13
2023-04-01T08:14:37.066Z,14.18
2023-04-01T08:16:19.087Z,14.10
2023-04-01T08:17:52.720Z,14.13
2023-04-01T08:19:06.206Z,14.15
2023-04-01T08:20:18.728Z,14.17
2023-04-01T08:21:25.887Z,14.19
2023-04-01T08:22:34.264Z,14.22
2023-04-01T08:23:43.248Z,14.23
2023-04-01T08:24:48.278Z,14.25
2023-04-01T08:26:17.483Z,14.27
2023-04-01T08:27:22.692Z,14.30
2023-04-01T08:30:18.626Z,14.48
2023-04-01T08:31:28.387Z,14.40
2023-04-01T08:32:38.386Z,14.44
2023-04-01T08:33:48.318Z,14.46
2023-04-01T08:35:01.740Z,14.48
2023-04-01T08:37:41.117Z,14.63
2023-04-01T08:38:52.245Z,14.54
2023-04-01T08:41:53.888Z,14.67
2023-04-01T08:43:26.119Z,14.58
2023-04-01T08:44:41.543Z,14.60
2023-04-01T08:46:10.626Z,14.60
2023-04-01T08:47:22.489Z,14.61
2023-04-01T08:48:50.392Z,14.60
2023-04-01T08:50:31.213Z,14.60
2023-04-01T08:52:13.727Z,14.59
2023-04-01T08:53:37.270Z,14.59
2023-04-01T08:55:05.382Z,14.60
2023-04-01T08:56:18.200Z,14.59
2023-04-01T08:58:01.325Z,14.59
2023-04-01T08:59:48.846Z,14.59
2023-04-01T09:01:37.491Z,14.58
2023-04-01T09:02:48.623Z,14.57
2023-04-01T09:04:41.282Z,14.56
2023-04-01T09:06:03.731Z,14.54
2023-04-01T09:07:37.051Z,14.52
2023-04-01T09:09:00.883Z,14.50
2023-04-01T09:10:24.833Z,14.49
2023-04-01T09:13:14.484Z,14.61
2023-04-01T09:16:14.870Z,14.60
2023-04-01T09:19:37.084Z,14.60
2023-04-01T09:22:34.447Z,14.63
2023-04-01T09:25:54.961Z,14.68
2023-04-01T09:28:20.881Z,14.73
2023-04-01T09:31:13.360Z,14.79
2023-04-01T09:34:03.529Z,14.90
2023-04-01T09:35:27.796Z,14.83
2023-04-01T09:36:44.935Z,14.90
2023-04-01T09:37:57.735Z,14.96
2023-04-01T09:40:49.540Z,15.19
2023-04-01T09:43:28.905Z,15.34
2023-04-01T09:44:36.974Z,15.31
2023-04-01T09:45:59.335Z,15.40
2023-04-01T09:47:32.400Z,15.47
2023-04-01T09:49:08.114Z,15.54
2023-04-01T09:52:16.496Z,15.73
2023-04-01T09:53:56.135Z,15.65
2023-04-01T09:55:19.911Z,15.69
2023-04-01T09:59:42.976Z,15.73
2023-04-01T10:02:51.441Z,15.91
2023-04-01T10:04:21.070Z,15.82
2023-04-01T10:05:44.167Z,15.85
2023-04-01T10:07:11.328Z,15.87
2023-04-01T10:08:34.622Z,15.88
2023-04-01T10:10:01.809Z,15.91
2023-04-01T10:11:12.703Z,15.93
2023-04-01T10:12:55.140Z,15.95
2023-04-01T10:14:37.801Z,15.96
2023-04-01T10:16:14.274Z,15.97
2023-04-01T10:17:40.047Z,15.99
2023-04-01T10:19:11.769Z,16.01
2023-04-01T10:20:22.313Z,16.00
2023-04-01T10:21:51.588Z,15.99
2023-04-01T10:23:22.325Z,15.97
2023-04-01T10:24:48.210Z,16.00
2023-04-01T10:26:31.323Z,16.01
2023-04-01T10:27:46.932Z,16.02
2023-04-01T10:31:06.174Z,16.17
2023-04-01T10:32:35.893Z,16.08
2023-04-01T10:33:57.417Z,16.10
2023-04-01T10:35:37.135Z,16.13
2023-04-01T10:38:45.180Z,16.31
2023-04-01T10:40:27.186Z,16.22
2023-04-01T10:42:26.867Z,16.24
2023-04-01T10:43:55.409Z,16.25
2023-04-01T10:45:13.064Z,16.29
2023-04-01T10:46:23.826Z,16.32
2023-04-01T10:48:00.652Z,16.34
2023-04-01T10:49:23.308Z,16.35
2023-04-01T10:50:53.130Z,16.36
2023-04-01T10:52:27.746Z,16.37
2023-04-01T10:55:39.593Z,16.45
2023-04-01T10:57:27.332Z,16.36
2023-04-01T10:59:19.025Z,16.36
2023-04-01T11:01:06.448Z,16.38
2023-04-01T11:02:59.674Z,16.39
2023-04-01T11:06:10.565Z,16.53
2023-04-01T11:07:41.856Z,16.44
2023-04-01T11:09:00.360Z,16.46
2023-04-01T11:10:12.618Z,16.49
2023-04-01T11:12:52.768Z,16.62
2023-04-01T11:14:37.019Z,16.52
2023-04-01T11:16:18.657Z,16.53
2023-04-01T11:17:28.318Z,16.54
2023-04-01T11:18:43.381Z,16.55
2023-04-01T11:20:04.575Z,16.55
2023-04-01T11:21:23.857Z,16.55
2023-04-01T11:22:54.508Z,16.57
2023-04-01T11:24:05.585Z,16.58
2023-04-01T11:25:16.099Z,16.61
2023-04-01T11:26:33.172Z,16.62
2023-04-01T11:30:00.804Z,16.75
2023-04-01T11:32:48.628Z,16.75
2023-04-01T11:34:28.384Z,16.64
2023-04-01T11:37:22.960Z,16.76
2023-04-01T11:40:46.818Z,16.75
2023-04-01T11:43:37.034Z,16.77
2023-04-01T11:46:32.176Z,16.80
2023-04-01T11:47:54.909Z,16.69
2023-04-01T11:49:07.735Z,16.71
2023-04-01T11:50:28.761Z,16.71
2023-04-01T11:51:48.673Z,16.70
2023-04-01T11:53:15.672Z,16.71
2023-04-01T11:54:41.078Z,16.69
2023-04-01T11:56:07.775Z,16.68
2023-04-01T11:57:17.097Z,16.67
2023-04-01T11:58:25.785Z,16.65
2023-04-01T11:59:46.892Z,16.66
2023-04-01T12:00:55.655Z,16.65
2023-04-01T12:02:11.046Z,16.66
2023-04-01T12:05:16.060Z,16.82
2023-04-01T12:06:45.660Z,16.72
2023-04-01T12:07:51.453Z,16.72
2023-04-01T12:09:32.567Z,16.74
2023-04-01T12:10:42.663Z,16.73
2023-04-01T12:11:56.139Z,16.73
2023-04-01T12:14:41.490Z,16.81
2023-04-01T12:16:09.813Z,16.68
2023-04-01T12:17:40.298Z,16.68
2023-04-01T12:19:02.216Z,16.68
2023-04-01T12:20:39.001Z,16.69
2023-04-01T12:22:04.690Z,16.68
2023-04-01T12:23:30.726Z,16.68
2023-04-01T12:24:48.686Z,16.68
2023-04-01T12:26:04.435Z,16.69
2023-04-01T12:27:31.158Z,16.68
2023-04-01T12:28:56.031Z,16.67
2023-04-01T12:30:10.414Z,16.68
2023-04-01T12:31:49.338Z,16.68
2023-04-01T12:33:38.766Z,16.69
2023-04-01T12:36:39.165Z,16.79
2023-04-01T12:40:07.942Z,16.78
2023-04-01T12:43:04.133Z,16.78
2023-04-01T12:44:44.061Z,16.69
2023-04-01T12:46:25.343Z,16.71
2023-04-01T12:48:10.733Z,16.72
2023-04-01T12:49:42.800Z,16.73
2023-04-01T12:52:52.740Z,16.85
2023-04-01T12:54:20.937Z,16.74
2023-04-01T12:55:49.592Z,16.74
2023-04-01T12:57:25.766Z,16.74
2023-04-01T12:59:09.314Z,16.73
2023-04-01T13:00:46.960Z,16.73
2023-04-01T13:02:17.015Z,16.72
2023-04-01T13:04:00.249Z,16.71
2023-04-01T13:06:59.076Z,16.79
2023-04-01T13:09:54.070Z,16.78
2023-04-01T13:11:11.109Z,16.68
2023-04-01T13:12:19.108Z,16.71
2023-04-01T13:13:35.584Z,16.73
2023-04-01T13:15:06.150Z,16.74
2023-04-01T13:16:35.050Z,16.74
2023-04-01T13:17:51.605Z,16.75
2023-04-01T13:20:46.076Z,16.87
2023-04-01T13:22:01.633Z,16.75
2023-04-01T13:24:50.377Z,16.86
2023-04-01T13:26:16.105Z,16.74
2023-04-01T13:27:36.728Z,16.75
2023-04-01T13:29:03.673Z,16.75
2023-04-01T13:30:28.679Z,16.75
2023-04-01T13:33:53.417Z,16.85
2023-04-01T13:35:15.079Z,16.73
2023-04-01T13:36:31.005Z,16.73
2023-04-01T13:41:02.408Z,16.80
2023-04-01T13:42:36.600Z,16.68
2023-04-01T13:45:14.697Z,16.77
2023-04-01T13:48:21.459Z,16.78
2023-04-01T13:49:36.970Z,16.67
2023-04-01T13:50:49.451Z,16.68
2023-04-01T13:52:20.319Z,16.69
2023-04-01T13:53:54.228Z,16.69
2023-04-01T13:55:40.230Z,16.68
2023-04-01T13:58:43.682Z,16.76
2023-04-01T14:00:19.804Z,16.62
2023-04-01T14:03:29.267Z,16.72
2023-04-01T14:05:15.174Z,16.60
2023-04-01T14:08:22.053Z,16.72
2023-04-01T14:11:40.616Z,16.71
2023-04-01T14:13:17.274Z,16.59
2023-04-01T14:19:35.910Z,16.59
2023-04-01T14:22:15.001Z,16.57
2023-04-01T14:23:41.517Z,16.58
2023-04-01T14:25:13.192Z,16.58
2023-04-01T14:26:44.985Z,16.58
2023-04-01T14:27:50.721Z,16.55
2023-04-01T14:29:08.666Z,16.55
2023-04-01T14:30:41.142Z,16.54
2023-04-01T14:32:08.132Z,16.53
2023-04-01T14:33:28.479Z,16.51
2023-04-01T14:34:36.988Z,16.50
2023-04-01T14:35:59.326Z,16.49
2023-04-01T14:37:20.333Z,16.48
2023-04-01T14:38:52.018Z,16.47
2023-04-01T14:40:21.400Z,16.46
2023-04-01T14:43:10.124Z,16.55
2023-04-01T14:44:32.956Z,16.44
2023-04-01T14:48:38.172Z,16.57
2023-04-01T14:49:42.515Z,16.46
2023-04-01T14:52:25.348Z,16.46
2023-04-01T14:53:29.729Z,16.46
2023-04-01T14:54:39.577Z,16.48
2023-04-01T14:55:45.333Z,16.46
2023-04-01T14:56:50.469Z,16.45
2023-04-01T14:58:00.658Z,16.44
2023-04-01T14:59:06.522Z,16.43
2023-04-01T15:00:15.149Z,16.41
2023-04-01T15:01:49.164Z,16.43
2023-04-01T15:02:59.589Z,16.41
2023-04-01T15:04:26.170Z,16.40
2023-04-01T15:05:49.240Z,16.38
2023-04-01T15:07:09.955Z,16.36
2023-04-01T15:08:23.933Z,16.33
2023-04-01T15:09:42.733Z,16.30
2023-04-01T15:10:54.561Z,16.27
2023-04-01T15:12:15.943Z,16.23
2023-04-01T15:13:39.399Z,16.21
2023-04-01T15:15:07.140Z,16.19
2023-04-01T15:16:16.546Z,16.16
2023-04-01T15:17:46.817Z,16.13
2023-04-01T15:19:11.273Z,16.10
2023-04-01T15:20:34.185Z,16.08
2023-04-01T15:21:59.974Z,16.06
2023-04-01T15:25:10.863Z,16.10
2023-04-01T15:26:17.429Z,15.98
2023-04-01T15:30:20.599Z,16.01
2023-04-01T15:31:44.033Z,15.88
2023-04-01T15:34:04.551Z,15.85
2023-04-01T15:35:16.026Z,15.83
2023-04-01T15:36:40.318Z,15.81
2023-04-01T15:39:20.324Z,15.95
2023-04-01T15:40:35.852Z,15.83
2023-04-01T15:43:27.449Z,15.81
2023-04-01T15:44:37.514Z,15.79
2023-04-01T15:46:58.767Z,15.86
2023-04-01T15:48:13.704Z,15.75
2023-04-01T15:52:24.268Z,15.83
2023-04-01T15:53:44.946Z,15.71
2023-04-01T15:56:23.474Z,15.69
2023-04-01T15:58:05.412Z,15.68
2023-04-01T15:59:47.332Z,15.68
2023-04-01T16:00:56.150Z,15.66
2023-04-01T16:02:34.659Z,15.64
2023-04-01T16:05:10.121Z,15.69
2023-04-01T16:07:55.935Z,15.67
2023-04-01T16:09:05.511Z,15.56
2023-04-01T16:12:28.187Z,15.55
2023-04-01T16:13:49.701Z,15.56
2023-04-01T16:14:58.171Z,15.54
2023-04-01T16:16:26.941Z,15.54
2023-04-01T16:19:36.957Z,15.62
2023-04-01T16:21:08.439Z,15.49
2023-04-01T16:22:20.937Z,15.47
2023-04-01T16:23:56.418Z,15.47
2023-04-01T16:25:39.102Z,15.46
2023-04-01T16:30:10.600Z,15.54
2023-04-01T16:31:39.066Z,15.41
2023-04-01T16:32:54.616Z,15.40
2023-04-01T16:34:13.124Z,15.39
2023-04-01T16:35:32.157Z,15.38
2023-04-01T16:36:48.211Z,15.37
2023-04-01T16:38:03.457Z,15.37
2023-04-01T16:42:17.935Z,15.44
2023-04-01T16:43:43.161Z,15.33
2023-04-01T16:45:02.746Z,15.33
2023-04-01T16:46:28.277Z,15.33
2023-04-01T16:47:34.693Z,15.33
2023-04-01T16:49:00.162Z,15.33
2023-04-01T16:51:26.179Z,15.43
2023-04-01T16:54:12.338Z,15.41
2023-04-01T16:55:21.140Z,15.30
2023-04-01T16:56:27.921Z,15.30
2023-04-01T16:57:37.025Z,15.31
2023-04-01T16:58:45.897Z,15.30
2023-04-01T16:59:54.763Z,15.30
2023-04-01T17:01:08.042Z,15.29
2023-04-01T17:02:15.342Z,15.29
2023-04-01T17:05:08.676Z,15.39
2023-04-01T17:06:27.728Z,15.28
2023-04-01T17:07:57.746Z,15.28
2023-04-01T17:09:30.571Z,15.28
2023-04-01T17:13:50.231Z,15.37
2023-04-01T17:15:17.663Z,15.26
2023-04-01T17:16:43.252Z,15.24
2023-04-01T17:18:08.925Z,15.25
2023-04-01T17:19:26.791Z,15.25
2023-04-01T17:20:36.388Z,15.24
2023-04-01T17:21:52.361Z,15.23
2023-04-01T17:23:14.785Z,15.21
2023-04-01T17:24:26.575Z,15.20
2023-04-01T17:25:41.624Z,15.19
2023-04-01T17:27:08.880Z,15.18
2023-04-01T17:28:42.143Z,15.18
2023-04-01T17:30:00.260Z,15.17
2023-04-01T17:31:14.775Z,15.16
2023-04-01T17:32:57.088Z,15.14
2023-04-01T17:36:24.150Z,15.21
2023-04-01T17:38:04.781Z,15.09
2023-04-01T17:39:45.728Z,15.09
2023-04-01T17:40:53.630Z,15.08
2023-04-01T17:42:11.114Z,15.06
2023-04-01T17:43:26.593Z,15.04
2023-04-01T17:44:53.275Z,15.04
2023-04-01T17:47:25.709Z,15.12
2023-04-01T17:48:53.208Z,15.00
2023-04-01T17:50:24.804Z,15.02
2023-04-01T17:51:44.065Z,15.01
2023-04-01T17:53:06.767Z,15.01
2023-04-01T17:56:44.473Z,15.11
2023-04-01T17:57:55.848Z,14.99
2023-04-01T18:00:18.354Z,14.99
2023-04-01T18:01:32.279Z,14.99
2023-04-01T18:03:03.093Z,14.98
2023-04-01T18:05:49.981Z,14.98
2023-04-01T18:08:49.896Z,15.07
2023-04-01T18:10:24.628Z,14.97
2023-04-01T18:13:24.928Z,15.07
2023-04-01T18:14:43.393Z,14.96
2023-04-01T18:16:11.425Z,14.96
2023-04-01T18:17:17.265Z,14.96
2023-04-01T18:18:31.234Z,14.95
2023-04-01T18:19:53.428Z,14.94
2023-04-01T18:21:40.650Z,14.94
2023-04-01T18:23:20.414Z,14.94
2023-04-01T18:24:33.552Z,14.94
2023-04-01T18:25:39.233Z,14.92
2023-04-01T18:26:44.465Z,14.92
2023-04-01T18:27:50.047Z,14.92
2023-04-01T18:30:16.947Z,15.00
2023-04-01T18:31:22.746Z,14.89
2023-04-01T18:32:38.389Z,14.89
2023-04-01T18:34:16.884Z,14.89
2023-04-01T18:36:47.704Z,14.99
2023-04-01T18:38:03.553Z,14.88
2023-04-01T18:39:15.459Z,14.88
2023-04-01T18:40:36.740Z,14.88
2023-04-01T18:42:06.881Z,14.88
2023-04-01T18:43:25.866Z,14.88
2023-04-01T18:44:48.698Z,14.88
2023-04-01T18:46:02.555Z,14.88
2023-04-01T18:49:02.436Z,14.98
2023-04-01T18:50:26.340Z,14.86
2023-04-01T18:51:47.136Z,14.84
2023-04-01T18:52:51.804Z,14.83
2023-04-01T18:54:07.197Z,14.83
2023-04-01T18:55:38.853Z,14.83
2023-04-01T18:56:45.060Z,14.83
2023-04-01T18:57:55.556Z,14.81
2023-04-01T19:00:41.624Z,14.92
2023-04-01T19:02:04.404Z,14.81
2023-04-01T19:03:23.384Z,14.80
2023-04-01T19:04:40.422Z,14.80
2023-04-01T19:05:45.188Z,14.79
2023-04-01T19:06:52.549Z,14.78
2023-04-01T19:07:56.353Z,14.77
2023-04-01T19:09:02.117Z,14.76